Список аэропортов
Фактическая погода:

21 апреля, 19:30
Температура: +5°C (+5.0*)
Ветер: 0
Давление: *767 мм
не опр.
Время (МСК)Темп. СВетерВлажностьДавлениеОблачностьОсадки
15:00+12ЮЗ, 3 м/с46%1025 гПаоблачно
16:00+11ЮЗ, 2 м/с49%1024 гПаоблачно
17:00+10ЮЗ, 2 м/с55%1024 гПаоблачно
18:00+8ЮЗ, 1 м/с70%1024 гПаоблачно
19:00+6Ю, 1 м/с80%1024 гПаоблачно
20:00+4ЮЗ, 1 м/с85%1024 гПаоблачно
21:00+3ЮЗ, 2 м/с90%1024 гПамалооблачно
22:00+1Ю, 1 м/с96%1024 гПас прояснениями
23:000Ю, 1 м/с98%1024 гПаоблачно
22 апреля
00:00-1Ю, 1 м/с97%1024 гПас прояснениями
01:00-1Ю, 2 м/с97%1023 гПас прояснениями
02:00-1Ю, 1 м/с97%1023 гПаоблачно
03:00-2Ю, 2 м/с97%1023 гПаоблачно
04:00-2Ю, 2 м/с96%1023 гПас прояснениями
05:00-2Ю, 2 м/с96%1022 гПаоблачно
06:00-0Ю, 2 м/с90%1022 гПаоблачно
07:00+2Ю, 2 м/с81%1022 гПас прояснениями
08:00+5Ю, 3 м/с64%1021 гПаоблачно
09:00+7ЮЗ, 3 м/с56%1020 гПаоблачно
10:00+9ЮЗ, 3 м/с50%1020 гПаоблачно
11:00+10ЮЗ, 4 м/с48%1020 гПаоблачно
12:00+10ЮЗ, 4 м/с46%1019 гПаоблачно
13:00+11ЮЗ, 4 м/с44%1019 гПаоблачно
14:00+10ЮЗ, 3 м/с47%1019 гПаоблачносл. дождь
15:00+8ЮЗ, 3 м/с69%1019 гПаоблачносл. дождь
16:00+8ЮЗ, 3 м/с72%1018 гПаоблачнодождь
17:00+7ЮЗ, 3 м/с86%1018 гПаоблачнодождь
18:00+6ЮЗ, 3 м/с91%1019 гПаоблачносл. дождь
19:00+5ЮЗ, 2 м/с94%1018 гПаоблачносл. дождь
20:00+4ЮЗ, 3 м/с93%1018 гПаоблачносл. дождь
21:00+4ЮЗ, 2 м/с95%1018 гПаоблачносл. дождь
22:00+3З, 2 м/с96%1018 гПаоблачно
23:00+3З, 2 м/с97%1018 гПаоблачно
23 апреля
00:00+3З, 2 м/с98%1018 гПаоблачно
01:00+3З, 1 м/с99%1018 гПаоблачно
02:00+2З, 1 м/с99%1018 гПаоблачно
03:00+2З, 1 м/с99%1018 гПаоблачно
04:00+1З, 1 м/с99%1018 гПаоблачно
05:00+1ЮЗ, 1 м/с99%1018 гПаоблачно
06:00+2ЮЗ, 1 м/с98%1018 гПаоблачно
07:00+3ЮЗ, 1 м/с97%1018 гПаоблачно
08:00+4З, 2 м/с94%1018 гПаоблачно
09:00+5З, 2 м/с88%1018 гПаоблачно
10:00+7ЮЗ, 2 м/с76%1018 гПаоблачно
11:00+8ЮЗ, 2 м/с61%1017 гПаоблачно
12:00+9З, 2 м/с55%1017 гПаоблачно
13:00+10З, 2 м/с55%1017 гПаоблачно
14:00+8ЮЗ, 3 м/с62%1017 гПаоблачно
15:00+7ЮЗ, 2 м/с68%1017 гПаоблачно